createdAt,value
2022-08-22T00:00:48.653Z,12.61
2022-08-22T00:02:44.477Z,12.94
2022-08-22T00:02:48.504Z,16.43
2022-08-22T00:02:58.481Z,17.90
2022-08-22T00:03:00.128Z,17.84
2022-08-22T00:03:03.384Z,15.30
2022-08-22T00:03:07.845Z,13.89
2022-08-22T00:03:18.470Z,12.42
2022-08-22T00:05:45.879Z,12.83
2022-08-22T00:08:12.610Z,12.75
2022-08-22T00:10:39.091Z,13.01
2022-08-22T00:13:05.731Z,12.89
2022-08-22T00:15:43.312Z,13.34
2022-08-22T00:18:10.732Z,12.94
2022-08-22T00:20:37.365Z,12.42
2022-08-22T00:23:04.173Z,12.27
2022-08-22T00:25:30.572Z,12.47
2022-08-22T00:27:57.400Z,12.73
2022-08-22T00:30:24.052Z,12.12
2022-08-22T00:32:50.952Z,12.67
2022-08-22T00:35:17.851Z,12.20
2022-08-22T00:37:44.188Z,11.79
2022-08-22T00:40:11.441Z,12.67
2022-08-22T00:42:38.007Z,11.95
2022-08-22T00:45:04.376Z,12.09
2022-08-22T00:47:30.766Z,12.29
2022-08-22T00:49:57.977Z,12.87
2022-08-22T00:52:24.417Z,12.34
2022-08-22T00:54:50.800Z,12.04
2022-08-22T00:57:17.371Z,12.40
2022-08-22T00:59:43.769Z,12.03
2022-08-22T01:02:10.290Z,11.94
2022-08-22T01:04:37.048Z,12.26
2022-08-22T01:07:03.505Z,12.14
2022-08-22T01:09:29.953Z,12.78
2022-08-22T01:11:57.154Z,12.64
2022-08-22T01:14:34.674Z,12.02
2022-08-22T01:17:02.616Z,12.11
2022-08-22T01:19:29.108Z,12.52
2022-08-22T01:21:55.561Z,11.92
2022-08-22T01:24:22.334Z,12.09
2022-08-22T01:26:50.604Z,12.23
2022-08-22T01:29:17.492Z,12.71
2022-08-22T01:31:44.710Z,12.25
2022-08-22T01:34:12.745Z,11.93
2022-08-22T01:36:39.562Z,12.12
2022-08-22T01:39:06.061Z,12.06
2022-08-22T01:41:32.525Z,12.59
2022-08-22T01:44:00.902Z,12.70
2022-08-22T01:46:27.986Z,12.18
2022-08-22T01:48:54.426Z,11.46
2022-08-22T01:51:20.844Z,11.43
2022-08-22T01:53:47.256Z,11.30
2022-08-22T01:56:13.705Z,10.88
2022-08-22T01:58:40.331Z,11.55
2022-08-22T02:01:07.389Z,11.75
2022-08-22T02:03:33.761Z,11.95
2022-08-22T02:06:00.157Z,12.04
2022-08-22T02:08:26.704Z,12.03
2022-08-22T02:10:53.105Z,12.20
2022-08-22T02:13:21.557Z,11.86
2022-08-22T02:15:48.212Z,11.83
2022-08-22T02:18:14.572Z,11.41
2022-08-22T02:20:41.085Z,11.49
2022-08-22T02:23:07.694Z,11.55
2022-08-22T02:25:34.129Z,11.55
2022-08-22T02:28:00.800Z,11.80
2022-08-22T02:30:27.485Z,11.95
2022-08-22T02:32:53.882Z,11.53
2022-08-22T02:35:20.479Z,12.09
2022-08-22T02:37:46.912Z,12.66
2022-08-22T02:40:13.344Z,11.13
2022-08-22T02:42:40.004Z,12.18
2022-08-22T02:45:06.772Z,11.19
2022-08-22T02:47:33.323Z,12.26
2022-08-22T02:49:59.770Z,12.02
2022-08-22T02:52:26.204Z,11.55
2022-08-22T02:54:52.641Z,10.80
2022-08-22T02:57:19.118Z,11.03
2022-08-22T02:59:46.402Z,11.39
2022-08-22T03:02:12.793Z,11.32
2022-08-22T03:04:39.368Z,10.87
2022-08-22T03:07:06.018Z,11.15
2022-08-22T03:09:32.448Z,11.09
2022-08-22T03:11:59.168Z,11.36
2022-08-22T03:14:26.653Z,11.83
2022-08-22T03:16:53.035Z,10.90
2022-08-22T03:19:19.461Z,11.34
2022-08-22T03:21:46.016Z,11.59
2022-08-22T03:24:12.489Z,12.00
2022-08-22T03:26:39.121Z,11.65
2022-08-22T03:29:06.078Z,11.34
2022-08-22T03:31:32.546Z,11.29
2022-08-22T03:33:59.155Z,10.99
2022-08-22T03:36:25.766Z,11.21
2022-08-22T03:38:52.348Z,10.63
2022-08-22T03:41:18.708Z,10.89
2022-08-22T03:43:45.264Z,11.24
2022-08-22T03:46:11.668Z,11.21
2022-08-22T03:48:38.072Z,11.21
2022-08-22T03:51:05.100Z,10.80
2022-08-22T03:53:32.526Z,11.47
2022-08-22T03:55:58.932Z,11.53
2022-08-22T03:58:27.867Z,11.18
2022-08-22T04:00:56.021Z,11.90
2022-08-22T04:03:23.315Z,11.78
2022-08-22T04:05:50.923Z,11.85
2022-08-22T04:08:25.615Z,11.43
2022-08-22T04:10:52.887Z,11.29
2022-08-22T04:13:19.467Z,10.93
2022-08-22T04:15:51.284Z,11.37
2022-08-22T04:18:17.838Z,10.74
2022-08-22T04:20:44.844Z,11.24
2022-08-22T04:23:11.243Z,11.41
2022-08-22T04:25:38.071Z,10.52
2022-08-22T04:28:04.591Z,10.52
2022-08-22T04:30:31.035Z,10.83
2022-08-22T04:32:57.659Z,10.97
2022-08-22T04:35:24.111Z,11.27
2022-08-22T04:37:50.640Z,11.48
2022-08-22T04:40:17.330Z,11.07
2022-08-22T04:42:43.787Z,10.91
2022-08-22T04:45:10.370Z,10.97
2022-08-22T04:47:37.246Z,10.92
2022-08-22T04:50:04.820Z,10.84
2022-08-22T04:52:31.406Z,10.72
2022-08-22T04:54:58.134Z,11.09
2022-08-22T04:57:27.022Z,11.49
2022-08-22T04:59:53.417Z,11.61
2022-08-22T05:02:20.361Z,11.54
2022-08-22T05:04:46.938Z,11.76
2022-08-22T05:07:13.530Z,11.17
2022-08-22T05:09:47.384Z,11.25
2022-08-22T05:12:13.950Z,11.49
2022-08-22T05:14:40.469Z,11.28
2022-08-22T05:17:07.055Z,12.02
2022-08-22T05:19:33.479Z,11.69
2022-08-22T05:21:59.935Z,11.38
2022-08-22T05:24:28.126Z,11.21
2022-08-22T05:26:55.108Z,11.05
2022-08-22T05:29:21.686Z,10.70
2022-08-22T05:31:48.205Z,11.45
2022-08-22T05:34:14.634Z,10.96
2022-08-22T05:36:41.206Z,11.28
2022-08-22T05:39:07.962Z,11.31
2022-08-22T05:41:34.683Z,10.91
2022-08-22T05:44:01.187Z,10.97
2022-08-22T05:46:27.775Z,11.25
2022-08-22T05:48:54.384Z,10.66
2022-08-22T05:51:20.814Z,10.70
2022-08-22T05:53:47.209Z,11.72
2022-08-22T05:56:13.671Z,11.21
2022-08-22T05:58:40.525Z,11.30
2022-08-22T06:01:07.124Z,10.73
2022-08-22T06:03:33.555Z,10.82
2022-08-22T06:06:00.136Z,10.74
2022-08-22T06:08:26.742Z,10.96
2022-08-22T06:10:53.290Z,10.64
2022-08-22T06:13:20.401Z,10.93
2022-08-22T06:15:55.221Z,10.34
2022-08-22T06:18:22.571Z,10.50
2022-08-22T06:20:49.048Z,10.27
2022-08-22T06:23:15.527Z,10.79
2022-08-22T06:25:42.069Z,10.85
2022-08-22T06:28:08.477Z,11.13
2022-08-22T06:30:35.124Z,10.91
2022-08-22T06:33:01.774Z,10.81
2022-08-22T06:35:28.243Z,10.98
2022-08-22T06:37:55.190Z,10.73
2022-08-22T06:40:21.721Z,10.48
2022-08-22T06:42:48.220Z,11.36
2022-08-22T06:45:14.986Z,11.09
2022-08-22T06:47:41.371Z,11.73
2022-08-22T06:50:13.577Z,11.99
2022-08-22T06:52:40.617Z,11.91
2022-08-22T06:55:07.018Z,12.12
2022-08-22T06:57:33.408Z,12.29
2022-08-22T06:59:59.994Z,12.13
2022-08-22T07:02:26.401Z,11.38
2022-08-22T07:04:52.834Z,11.80
2022-08-22T07:07:19.444Z,11.60
2022-08-22T07:09:45.859Z,12.27
2022-08-22T07:12:12.262Z,12.19
2022-08-22T07:14:39.035Z,12.22
2022-08-22T07:17:05.419Z,11.95
2022-08-22T07:19:31.796Z,12.06
2022-08-22T07:21:58.418Z,11.72
2022-08-22T07:24:24.824Z,10.85
2022-08-22T07:26:51.210Z,11.30
2022-08-22T07:29:17.804Z,11.51
2022-08-22T07:31:46.501Z,11.47
2022-08-22T07:34:15.374Z,11.61
2022-08-22T07:36:42.096Z,11.76
2022-08-22T07:39:11.053Z,12.12
2022-08-22T07:41:37.635Z,12.11
2022-08-22T07:44:04.105Z,11.71
2022-08-22T07:46:30.769Z,12.09
2022-08-22T07:49:09.207Z,12.70
2022-08-22T07:51:37.034Z,11.93
2022-08-22T07:54:03.418Z,12.02
2022-08-22T07:56:29.789Z,12.11
2022-08-22T07:58:56.346Z,12.63
2022-08-22T08:01:23.203Z,12.50
2022-08-22T08:03:50.021Z,12.37
2022-08-22T08:06:16.631Z,11.84
2022-08-22T08:08:43.243Z,11.46
2022-08-22T08:11:09.658Z,11.96
2022-08-22T08:13:36.263Z,11.51
2022-08-22T08:16:02.633Z,12.38
2022-08-22T08:18:29.071Z,12.04
2022-08-22T08:20:55.765Z,11.59
2022-08-22T08:23:23.826Z,11.63
2022-08-22T08:25:53.648Z,11.52
2022-08-22T08:28:20.474Z,11.14
2022-08-22T08:30:47.983Z,12.22
2022-08-22T08:33:24.787Z,11.51
2022-08-22T08:36:03.333Z,11.80
2022-08-22T08:38:30.560Z,11.51
2022-08-22T08:40:57.028Z,11.46
2022-08-22T08:43:23.454Z,10.61
2022-08-22T08:45:49.920Z,11.13
2022-08-22T08:48:16.510Z,10.77
2022-08-22T08:50:43.242Z,10.59
2022-08-22T08:53:09.751Z,10.65
2022-08-22T08:55:37.095Z,11.09
2022-08-22T08:58:07.035Z,11.27
2022-08-22T09:00:37.008Z,11.89
2022-08-22T09:03:06.925Z,12.21
2022-08-22T09:05:33.789Z,11.90
2022-08-22T09:08:00.547Z,11.99
2022-08-22T09:10:27.369Z,12.35
2022-08-22T09:13:11.489Z,12.26
2022-08-22T09:15:42.185Z,12.07
2022-08-22T09:18:08.665Z,11.89
2022-08-22T09:20:36.866Z,12.20
2022-08-22T09:23:03.557Z,12.81
2022-08-22T09:25:38.460Z,12.17
2022-08-22T09:28:07.094Z,12.31
2022-08-22T09:30:33.938Z,12.06
2022-08-22T09:33:00.389Z,12.18
2022-08-22T09:35:27.143Z,11.92
2022-08-22T09:37:53.833Z,11.89
2022-08-22T09:42:51.870Z,11.01
2022-08-22T09:45:18.474Z,11.93
2022-08-22T09:47:44.948Z,12.09
2022-08-22T09:50:11.550Z,12.34
2022-08-22T09:52:37.971Z,12.37
2022-08-22T09:55:04.341Z,12.67
2022-08-22T09:57:35.271Z,12.77
2022-08-22T10:00:02.199Z,12.33
2022-08-22T10:02:28.950Z,12.88
2022-08-22T10:04:56.730Z,11.99
2022-08-22T10:07:24.722Z,12.19
2022-08-22T10:09:53.374Z,11.49
2022-08-22T10:12:24.784Z,11.22
2022-08-22T10:14:51.378Z,11.88
2022-08-22T10:17:21.779Z,12.17
2022-08-22T10:19:48.601Z,12.14
2022-08-22T10:22:15.250Z,12.40
2022-08-22T10:24:43.843Z,12.53
2022-08-22T10:27:11.644Z,11.96
2022-08-22T10:29:38.047Z,12.36
2022-08-22T10:32:07.753Z,12.26
2022-08-22T10:34:40.960Z,12.54
2022-08-22T10:37:08.666Z,12.57
2022-08-22T10:39:36.751Z,12.86
2022-08-22T10:42:03.329Z,12.61
2022-08-22T10:44:29.954Z,12.47
2022-08-22T10:46:57.132Z,11.98
2022-08-22T10:49:28.380Z,11.21
2022-08-22T10:51:55.714Z,11.93
2022-08-22T10:54:24.830Z,12.35
2022-08-22T10:56:51.265Z,12.47
2022-08-22T10:59:19.071Z,12.85
2022-08-22T11:01:49.431Z,11.11
2022-08-22T11:04:17.465Z,12.08
2022-08-22T11:06:44.820Z,12.26
2022-08-22T11:09:12.775Z,12.70
2022-08-22T11:11:39.504Z,12.58
2022-08-22T11:14:05.918Z,12.59
2022-08-22T11:16:36.528Z,11.69
2022-08-22T11:19:15.144Z,12.63
2022-08-22T11:21:42.345Z,11.65
2022-08-22T11:24:08.719Z,11.94
2022-08-22T11:26:47.093Z,11.81
2022-08-22T11:29:14.515Z,11.68
2022-08-22T11:31:47.105Z,11.96
2022-08-22T11:34:20.570Z,12.36
2022-08-22T11:36:47.091Z,11.91
2022-08-22T11:39:18.597Z,12.13
2022-08-22T11:41:45.450Z,11.88
2022-08-22T11:44:19.094Z,11.80
2022-08-22T11:46:45.511Z,12.00
2022-08-22T11:49:12.582Z,12.36
2022-08-22T11:51:38.984Z,11.21
2022-08-22T11:54:05.504Z,11.54
2022-08-22T11:56:32.306Z,12.15
2022-08-22T11:59:00.139Z,12.45
2022-08-22T12:01:27.433Z,12.19
2022-08-22T12:04:00.735Z,12.07
2022-08-22T12:06:30.015Z,12.56
2022-08-22T12:08:56.460Z,12.06
2022-08-22T12:11:22.992Z,12.93
2022-08-22T12:13:49.507Z,13.20
2022-08-22T12:16:15.961Z,12.12
2022-08-22T12:18:42.386Z,12.11
2022-08-22T12:21:11.672Z,12.03
2022-08-22T12:23:48.769Z,12.21
2022-08-22T12:26:16.398Z,12.14
2022-08-22T12:28:42.906Z,12.11
2022-08-22T12:31:09.463Z,12.21
2022-08-22T12:33:36.514Z,12.11
2022-08-22T12:36:03.298Z,11.65
2022-08-22T12:38:34.848Z,11.87
2022-08-22T12:41:08.195Z,12.20
2022-08-22T12:43:35.311Z,12.11
2022-08-22T12:46:13.082Z,11.71
2022-08-22T12:48:39.963Z,12.28
2022-08-22T12:51:17.291Z,12.13
2022-08-22T12:53:44.705Z,12.53
2022-08-22T12:56:11.436Z,13.24
2022-08-22T12:58:37.861Z,12.86
2022-08-22T13:01:04.753Z,12.87
2022-08-22T13:03:32.847Z,12.59
2022-08-22T13:06:00.450Z,12.40
2022-08-22T13:11:22.735Z,12.46
2022-08-22T13:13:56.054Z,12.95
2022-08-22T13:16:23.262Z,12.46
2022-08-22T13:18:53.695Z,12.69
2022-08-22T13:21:20.579Z,13.50
2022-08-22T13:23:47.075Z,12.95
2022-08-22T13:26:24.427Z,12.73
2022-08-22T13:29:15.551Z,13.22
2022-08-22T13:31:46.209Z,13.72
2022-08-22T13:34:17.393Z,13.84
2022-08-22T13:36:52.016Z,13.53
2022-08-22T13:39:19.666Z,14.06
2022-08-22T13:41:46.146Z,13.59
2022-08-22T13:44:12.523Z,13.13
2022-08-22T13:47:10.765Z,12.92
2022-08-22T13:49:28.267Z,12.59
2022-08-22T13:51:54.750Z,12.77
2022-08-22T13:54:21.333Z,13.21
2022-08-22T13:56:48.002Z,13.82
2022-08-22T13:59:40.077Z,13.43
2022-08-22T14:02:03.775Z,13.98
2022-08-22T14:04:35.879Z,13.20
2022-08-22T14:07:02.879Z,13.07
2022-08-22T14:09:31.951Z,12.92
2022-08-22T14:11:59.563Z,13.30
2022-08-22T14:14:26.479Z,12.29
2022-08-22T14:16:52.987Z,13.46
2022-08-22T14:19:24.574Z,12.83
2022-08-22T14:21:53.677Z,13.37
2022-08-22T14:24:27.263Z,12.31
2022-08-22T14:26:53.842Z,12.93
2022-08-22T14:29:24.400Z,13.91
2022-08-22T14:31:50.932Z,13.77
2022-08-22T14:34:17.884Z,13.71
2022-08-22T14:36:45.557Z,13.91
2022-08-22T14:39:16.423Z,13.96
2022-08-22T14:41:52.784Z,13.28
2022-08-22T14:44:23.815Z,13.92
2022-08-22T14:46:51.265Z,14.53
2022-08-22T14:49:17.660Z,14.53
2022-08-22T14:51:44.431Z,14.49
2022-08-22T14:54:14.089Z,14.90
2022-08-22T14:56:47.668Z,14.57
2022-08-22T14:59:14.793Z,13.63
2022-08-22T15:01:41.409Z,14.32
2022-08-22T15:04:08.105Z,14.35
2022-08-22T15:06:34.506Z,14.76
2022-08-22T15:09:02.054Z,14.65
2022-08-22T15:11:34.849Z,14.35
2022-08-22T15:14:01.499Z,14.44
2022-08-22T15:16:27.980Z,14.85
2022-08-22T15:18:54.419Z,14.54
2022-08-22T15:21:24.100Z,14.51
2022-08-22T15:23:51.038Z,14.69
2022-08-22T15:26:18.062Z,14.71
2022-08-22T15:28:49.808Z,13.74
2022-08-22T15:31:19.751Z,13.37
2022-08-22T15:33:46.247Z,14.19
2022-08-22T15:36:12.762Z,14.59
2022-08-22T15:38:42.458Z,13.87
2022-08-22T15:41:15.102Z,14.46
2022-08-22T15:43:41.582Z,14.01
2022-08-22T15:46:09.912Z,14.00
2022-08-22T15:48:44.386Z,13.15
2022-08-22T15:51:41.803Z,13.36
2022-08-22T15:54:16.266Z,12.92
2022-08-22T15:56:50.975Z,13.61
2022-08-22T15:59:17.389Z,13.21
2022-08-22T16:01:43.910Z,13.42
2022-08-22T16:04:16.410Z,13.93
2022-08-22T16:06:42.878Z,13.73
2022-08-22T16:09:09.305Z,13.93
2022-08-22T16:11:35.862Z,13.86
2022-08-22T16:14:02.261Z,13.34
2022-08-22T16:16:31.581Z,13.35
2022-08-22T16:18:57.961Z,13.84
2022-08-22T16:21:24.314Z,14.45
2022-08-22T16:23:50.714Z,14.77
2022-08-22T16:26:17.230Z,14.30
2022-08-22T16:28:57.825Z,14.18
2022-08-22T16:31:24.638Z,14.17
2022-08-22T16:33:51.029Z,14.33
2022-08-22T16:36:17.511Z,14.43
2022-08-22T16:38:43.891Z,14.51
2022-08-22T16:41:10.257Z,14.63
2022-08-22T16:43:36.618Z,14.98
2022-08-22T16:46:19.166Z,14.15
2022-08-22T16:48:51.503Z,14.34
2022-08-22T16:51:17.920Z,14.67
2022-08-22T16:53:45.757Z,14.60
2022-08-22T16:56:12.539Z,14.35
2022-08-22T16:58:56.236Z,14.21
2022-08-22T17:01:25.982Z,14.19
2022-08-22T17:03:52.412Z,14.43
2022-08-22T17:06:18.839Z,14.24
2022-08-22T17:08:45.306Z,14.41
2022-08-22T17:11:11.679Z,14.07
2022-08-22T17:13:38.135Z,14.32
2022-08-22T17:16:04.697Z,14.53
2022-08-22T17:18:31.296Z,13.96
2022-08-22T17:20:57.871Z,14.24
2022-08-22T17:23:25.123Z,14.51
2022-08-22T17:25:51.527Z,14.09
2022-08-22T17:28:17.899Z,14.55
2022-08-22T17:30:44.941Z,14.44
2022-08-22T17:33:11.340Z,14.02
2022-08-22T17:35:38.861Z,14.32
2022-08-22T17:38:05.375Z,13.78
2022-08-22T17:40:32.091Z,14.17
2022-08-22T17:42:58.714Z,14.09
2022-08-22T17:45:27.892Z,14.09
2022-08-22T17:47:54.664Z,14.48
2022-08-22T17:50:21.090Z,14.86
2022-08-22T17:52:47.571Z,14.48
2022-08-22T17:55:14.182Z,14.53
2022-08-22T17:57:40.549Z,14.38
2022-08-22T18:00:07.170Z,14.56
2022-08-22T18:02:34.866Z,14.71
2022-08-22T18:05:01.284Z,14.22
2022-08-22T18:07:27.895Z,14.01
2022-08-22T18:09:54.486Z,13.67
2022-08-22T18:12:20.858Z,13.55
2022-08-22T18:14:47.484Z,13.38
2022-08-22T18:17:14.034Z,14.03
2022-08-22T18:19:40.487Z,13.89
2022-08-22T18:22:07.450Z,13.58
2022-08-22T18:24:33.901Z,13.45
2022-08-22T18:27:00.273Z,13.79
2022-08-22T18:29:27.179Z,14.01
2022-08-22T18:31:53.949Z,14.08
2022-08-22T18:34:20.690Z,13.89
2022-08-22T18:36:47.532Z,14.33
2022-08-22T18:39:14.284Z,14.48
2022-08-22T18:41:40.883Z,14.07
2022-08-22T18:44:08.501Z,14.29
2022-08-22T18:46:35.126Z,14.07
2022-08-22T18:49:15.206Z,13.81
2022-08-22T18:51:42.261Z,13.83
2022-08-22T18:54:09.202Z,14.17
2022-08-22T18:56:36.239Z,14.54
2022-08-22T18:59:05.561Z,13.88
2022-08-22T19:01:44.495Z,13.60
2022-08-22T19:04:11.889Z,13.78
2022-08-22T19:06:39.329Z,13.86
2022-08-22T19:09:06.312Z,13.84
2022-08-22T19:11:36.989Z,13.85
2022-08-22T19:14:04.733Z,13.50
2022-08-22T19:16:32.182Z,13.87
2022-08-22T19:18:59.898Z,14.31
2022-08-22T19:21:26.923Z,14.22
2022-08-22T19:23:53.736Z,14.28
2022-08-22T19:26:20.858Z,14.51
2022-08-22T19:28:47.587Z,14.16
2022-08-22T19:31:16.568Z,13.83
2022-08-22T19:33:44.588Z,13.94
2022-08-22T19:36:11.648Z,14.35
2022-08-22T19:38:38.268Z,13.96
2022-08-22T19:41:05.702Z,13.78
2022-08-22T19:43:32.712Z,13.83
2022-08-22T19:45:59.395Z,13.49
2022-08-22T19:48:31.244Z,13.62
2022-08-22T19:50:57.932Z,13.87
2022-08-22T19:53:24.936Z,13.78
2022-08-22T19:55:51.978Z,13.49
2022-08-22T19:58:18.989Z,13.14
2022-08-22T20:01:00.169Z,13.50
2022-08-22T20:03:28.533Z,13.99
2022-08-22T20:05:56.983Z,14.07
2022-08-22T20:08:25.572Z,13.24
2022-08-22T20:10:52.765Z,13.50
2022-08-22T20:13:19.987Z,13.09
2022-08-22T20:15:50.888Z,13.58
2022-08-22T20:21:05.355Z,13.90
2022-08-22T20:23:31.915Z,13.59
2022-08-22T20:25:58.762Z,13.60
2022-08-22T20:28:25.659Z,13.79
2022-08-22T20:30:53.080Z,14.22
2022-08-22T20:33:19.769Z,14.04
2022-08-22T20:35:46.783Z,13.63
2022-08-22T20:38:13.379Z,13.13
2022-08-22T20:40:54.746Z,13.67
2022-08-22T20:43:24.007Z,14.14
2022-08-22T20:45:50.547Z,13.80
2022-08-22T20:48:17.116Z,13.76
2022-08-22T20:50:43.761Z,13.73
2022-08-22T20:53:10.245Z,13.92
2022-08-22T20:55:37.135Z,13.70
2022-08-22T20:58:04.276Z,13.72
2022-08-22T21:00:31.362Z,13.64
2022-08-22T21:02:57.964Z,13.85
2022-08-22T21:05:24.426Z,13.71
2022-08-22T21:07:51.097Z,13.56
2022-08-22T21:10:22.343Z,13.62
2022-08-22T21:12:50.209Z,13.44
2022-08-22T21:15:16.750Z,13.62
2022-08-22T21:17:43.688Z,13.52
2022-08-22T21:20:10.577Z,13.53
2022-08-22T21:22:36.991Z,13.84
2022-08-22T21:25:03.482Z,13.94
2022-08-22T21:27:30.161Z,13.87
2022-08-22T21:29:56.846Z,14.08
2022-08-22T21:32:23.358Z,14.19
2022-08-22T21:34:50.237Z,13.98
2022-08-22T21:37:16.772Z,13.91
2022-08-22T21:39:43.334Z,13.71
2022-08-22T21:42:12.217Z,14.11
2022-08-22T21:44:40.883Z,14.22
2022-08-22T21:47:07.792Z,13.90
2022-08-22T21:49:34.868Z,14.29
2022-08-22T21:52:01.863Z,14.00
2022-08-22T21:54:28.360Z,13.85
2022-08-22T21:56:54.983Z,13.79
2022-08-22T21:59:21.597Z,13.71
2022-08-22T22:01:51.603Z,13.57
2022-08-22T22:04:18.210Z,13.93
2022-08-22T22:06:44.637Z,13.38
2022-08-22T22:09:15.103Z,13.65
2022-08-22T22:11:41.959Z,14.01
2022-08-22T22:14:10.488Z,13.82
2022-08-22T22:16:37.065Z,13.50
2022-08-22T22:19:03.650Z,13.61
2022-08-22T22:21:30.069Z,13.40
2022-08-22T22:23:58.527Z,13.54
2022-08-22T22:26:25.560Z,13.22
2022-08-22T22:28:52.138Z,12.92
2022-08-22T22:31:18.773Z,12.56
2022-08-22T22:33:45.462Z,12.70
2022-08-22T22:36:11.897Z,12.99
2022-08-22T22:38:38.338Z,12.82
2022-08-22T22:41:05.322Z,13.15
2022-08-22T22:43:32.312Z,12.80
2022-08-22T22:45:58.758Z,12.90
2022-08-22T22:48:25.624Z,13.09
2022-08-22T22:50:52.057Z,13.42
2022-08-22T22:53:19.386Z,12.87
2022-08-22T22:55:47.500Z,12.84
2022-08-22T22:58:26.814Z,12.69
2022-08-22T23:00:53.368Z,12.89
2022-08-22T23:03:19.868Z,13.08
2022-08-22T23:05:46.369Z,13.21
2022-08-22T23:08:13.192Z,12.67
2022-08-22T23:10:39.633Z,12.56
2022-08-22T23:13:06.128Z,13.36
2022-08-22T23:15:32.839Z,13.31
2022-08-22T23:17:59.422Z,12.83
2022-08-22T23:20:26.019Z,12.66
2022-08-22T23:22:52.575Z,13.12
2022-08-22T23:25:19.197Z,13.01
2022-08-22T23:27:48.831Z,12.28
2022-08-22T23:30:19.243Z,12.45
2022-08-22T23:32:45.716Z,12.62
2022-08-22T23:35:12.677Z,13.15
2022-08-22T23:37:39.325Z,13.36
2022-08-22T23:40:05.975Z,13.10
2022-08-22T23:42:32.719Z,13.06
2022-08-22T23:44:59.666Z,13.15
2022-08-22T23:47:26.308Z,13.00
2022-08-22T23:49:53.066Z,13.13
2022-08-22T23:52:19.989Z,12.34
2022-08-22T23:54:46.462Z,12.61
2022-08-22T23:57:13.604Z,12.18
2022-08-22T23:59:46.327Z,12.91
